Time,TemperatureF,DewpointF,PressureIn,WindDirection,WindDirectionDegrees,WindSpeedMPH,WindSpeedGustMPH,Humidity,HourlyPrecipIn,Conditions,Clouds,dailyrainin,SoftwareType,DateUTC
2013-08-28 00:01:00,73.9,72.4,29.96,SW,225,0.0,0.0,95,0.00,,,0.00,Wunderground v.1.15,2013-08-28 04:01:00,
2013-08-28 00:03:00,74.0,72.5,29.96,SW,225,0.0,0.0,95,0.00,,,0.00,Wunderground v.1.15,2013-08-28 04:03:00,
2013-08-28 00:05:00,74.0,72.5,29.96,SW,225,0.0,1.0,95,0.00,,,0.00,Wunderground v.1.15,2013-08-28 04:05:00,
2013-08-28 00:11:00,74.0,72.2,29.95,SW,225,0.0,0.0,94,0.00,,,0.00,Wunderground v.1.15,2013-08-28 04:11:00,
2013-08-28 00:16:00,74.0,72.2,29.95,SW,225,0.0,0.0,94,0.00,,,0.00,Wunderground v.1.15,2013-08-28 04:16:00,
2013-08-28 00:21:00,74.0,72.2,29.95,SW,225,0.0,0.0,94,0.00,,,0.00,Wunderground v.1.15,2013-08-28 04:21:00,
2013-08-28 00:27:00,74.0,72.2,29.95,SW,225,0.0,0.0,94,0.00,,,0.00,Wunderground v.1.15,2013-08-28 04:27:00,
2013-08-28 00:33:00,74.0,72.2,29.95,SW,225,0.0,0.0,94,0.00,,,0.00,Wunderground v.1.15,2013-08-28 04:33:00,
2013-08-28 00:39:00,74.0,72.2,29.95,SW,225,0.0,1.0,94,0.00,,,0.00,Wunderground v.1.15,2013-08-28 04:39:00,
2013-08-28 00:41:00,74.0,72.2,29.95,SW,225,0.0,0.0,94,0.00,,,0.00,Wunderground v.1.15,2013-08-28 04:41:00,
2013-08-28 00:47:00,74.0,72.2,29.94,SW,225,0.0,0.0,94,0.00,,,0.00,Wunderground v.1.15,2013-08-28 04:47:00,
2013-08-28 00:53:00,74.0,72.2,29.94,SW,225,0.0,0.0,94,0.00,,,0.00,Wunderground v.1.15,2013-08-28 04:53:00,
2013-08-28 00:58:00,74.0,72.2,29.94,SW,225,0.0,0.0,94,0.00,,,0.00,Wunderground v.1.15,2013-08-28 04:58:00,
2013-08-28 01:04:00,73.9,72.1,29.93,SW,225,0.0,4.0,94,0.00,,,0.00,Wunderground v.1.15,2013-08-28 05:04:00,
2013-08-28 01:10:00,73.9,72.4,29.94,SW,225,0.0,4.0,95,0.00,,,0.00,Wunderground v.1.15,2013-08-28 05:10:00,
2013-08-28 01:16:00,73.8,72.3,29.93,SW,225,0.0,4.0,95,0.00,,,0.00,Wunderground v.1.15,2013-08-28 05:16:00,
2013-08-28 01:22:00,73.8,72.3,29.94,SW,225,0.0,4.0,95,0.00,,,0.00,Wunderground v.1.15,2013-08-28 05:22:00,
2013-08-28 01:27:00,73.7,72.2,29.94,SW,225,0.0,4.0,95,0.00,,,0.00,Wunderground v.1.15,2013-08-28 05:27:00,
2013-08-28 01:33:00,73.7,72.2,29.94,SW,225,0.0,4.0,95,0.00,,,0.00,Wunderground v.1.15,2013-08-28 05:33:00,
2013-08-28 01:39:00,73.7,72.2,29.94,SW,225,0.0,4.0,95,0.00,,,0.00,Wunderground v.1.15,2013-08-28 05:39:00,
2013-08-28 01:45:00,73.7,72.2,29.94,SW,225,0.0,4.0,95,0.00,,,0.00,Wunderground v.1.15,2013-08-28 05:45:00,
2013-08-28 01:51:00,73.7,72.2,29.94,SW,225,0.0,4.0,95,0.00,,,0.00,Wunderground v.1.15,2013-08-28 05:51:00,
2013-08-28 01:56:00,73.6,72.1,29.94,SW,225,0.0,4.0,95,0.00,,,0.00,Wunderground v.1.15,2013-08-28 05:56:00,
2013-08-28 02:02:00,73.5,72.0,29.93,SW,225,0.0,4.0,95,0.00,,,0.00,Wunderground v.1.15,2013-08-28 06:02:00,
2013-08-28 02:07:00,73.5,72.0,29.93,SW,225,0.0,4.0,95,0.00,,,0.00,Wunderground v.1.15,2013-08-28 06:07:00,
2013-08-28 02:13:00,73.4,71.9,29.93,SW,225,0.0,4.0,95,0.00,,,0.00,Wunderground v.1.15,2013-08-28 06:13:00,
2013-08-28 02:18:00,73.3,71.8,29.94,SW,225,0.0,4.0,95,0.00,,,0.00,Wunderground v.1.15,2013-08-28 06:18:00,
2013-08-28 02:24:00,73.2,71.7,29.93,SW,225,0.0,4.0,95,0.00,,,0.00,Wunderground v.1.15,2013-08-28 06:24:00,
2013-08-28 02:29:00,73.2,71.7,29.92,SW,225,0.0,4.0,95,0.00,,,0.00,Wunderground v.1.15,2013-08-28 06:29:00,
2013-08-28 02:34:00,73.1,71.6,29.92,SW,225,0.0,4.0,95,0.00,,,0.00,Wunderground v.1.15,2013-08-28 06:34:00,
2013-08-28 02:39:00,73.1,71.6,29.92,SW,225,0.0,4.0,95,0.00,,,0.00,Wunderground v.1.15,2013-08-28 06:39:00,
2013-08-28 02:44:00,73.0,71.8,29.94,SW,225,1.0,4.0,96,0.00,,,0.00,Wunderground v.1.15,2013-08-28 06:44:00,
2013-08-28 02:50:00,73.0,71.8,29.93,WSW,238,2.0,6.0,96,0.00,,,0.00,Wunderground v.1.15,2013-08-28 06:50:00,
2013-08-28 02:55:00,72.7,71.2,29.94,SW,220,2.0,6.0,95,3.05,,,0.06,Wunderground v.1.15,2013-08-28 06:55:00,
2013-08-28 03:01:00,72.4,70.9,29.92,SW,220,1.0,4.0,95,0.51,,,0.21,Wunderground v.1.15,2013-08-28 07:01:00,
2013-08-28 03:06:00,72.1,70.6,29.93,SW,219,0.0,4.0,95,0.81,,,0.26,Wunderground v.1.15,2013-08-28 07:06:00,
2013-08-28 03:11:00,72.1,70.9,29.92,South,185,1.0,4.0,96,0.25,,,0.33,Wunderground v.1.15,2013-08-28 07:11:00,
2013-08-28 03:17:00,72.2,71.0,29.92,South,181,2.0,4.0,96,0.07,,,0.33,Wunderground v.1.15,2013-08-28 07:17:00,
2013-08-28 03:22:00,72.3,71.1,29.92,South,171,3.0,4.0,96,0.05,,,0.33,Wunderground v.1.15,2013-08-28 07:22:00,
2013-08-28 03:27:00,72.3,71.4,29.91,South,175,1.0,4.0,97,0.00,,,0.33,Wunderground v.1.15,2013-08-28 07:27:00,
2013-08-28 03:33:00,72.2,71.0,29.91,South,184,1.0,4.0,96,0.00,,,0.33,Wunderground v.1.15,2013-08-28 07:33:00,
2013-08-28 03:39:00,72.2,71.0,29.91,South,184,1.0,4.0,96,0.00,,,0.33,Wunderground v.1.15,2013-08-28 07:39:00,
2013-08-28 03:45:00,72.1,71.2,29.91,South,184,0.0,4.0,97,0.00,,,0.33,Wunderground v.1.15,2013-08-28 07:45:00,
2013-08-28 03:51:00,72.1,71.2,29.91,South,184,0.0,4.0,97,0.00,,,0.33,Wunderground v.1.15,2013-08-28 07:51:00,
2013-08-28 03:56:00,72.0,71.1,29.91,South,184,0.0,4.0,97,0.00,,,0.33,Wunderground v.1.15,2013-08-28 07:56:00,
2013-08-28 04:01:00,71.9,71.0,29.91,South,184,0.0,4.0,97,0.00,,,0.33,Wunderground v.1.15,2013-08-28 08:01:00,
2013-08-28 04:06:00,71.9,71.0,29.91,South,184,0.0,4.0,97,0.00,,,0.33,Wunderground v.1.15,2013-08-28 08:06:00,
2013-08-28 04:12:00,71.8,70.9,29.90,South,184,0.0,4.0,97,0.00,,,0.33,Wunderground v.1.15,2013-08-28 08:12:00,
2013-08-28 04:18:00,71.7,70.8,29.90,South,184,0.0,4.0,97,0.00,,,0.33,Wunderground v.1.15,2013-08-28 08:18:00,
2013-08-28 04:23:00,71.6,70.7,29.90,South,184,0.0,4.0,97,0.00,,,0.33,Wunderground v.1.15,2013-08-28 08:23:00,
2013-08-28 04:28:00,71.5,70.6,29.89,South,184,0.0,4.0,97,0.00,,,0.33,Wunderground v.1.15,2013-08-28 08:28:00,
2013-08-28 04:34:00,71.4,70.5,29.89,South,184,0.0,4.0,97,0.00,,,0.34,Wunderground v.1.15,2013-08-28 08:34:00,
2013-08-28 04:40:00,71.2,70.3,29.90,South,184,0.0,4.0,97,0.00,,,0.34,Wunderground v.1.15,2013-08-28 08:40:00,
2013-08-28 04:45:00,71.1,70.2,29.89,South,184,0.0,4.0,97,0.00,,,0.34,Wunderground v.1.15,2013-08-28 08:45:00,
2013-08-28 04:50:00,71.0,70.1,29.89,South,184,0.0,4.0,97,0.00,,,0.34,Wunderground v.1.15,2013-08-28 08:50:00,
2013-08-28 04:55:00,70.9,70.0,29.90,South,184,0.0,4.0,97,0.00,,,0.34,Wunderground v.1.15,2013-08-28 08:55:00,
2013-08-28 05:00:00,70.8,69.9,29.90,South,184,0.0,4.0,97,0.00,,,0.34,Wunderground v.1.15,2013-08-28 09:00:00,
2013-08-28 05:05:00,70.9,70.0,29.90,South,184,0.0,4.0,97,0.00,,,0.34,Wunderground v.1.15,2013-08-28 09:05:00,
2013-08-28 05:11:00,70.9,70.0,29.89,South,184,0.0,4.0,97,0.00,,,0.34,Wunderground v.1.15,2013-08-28 09:11:00,
2013-08-28 05:17:00,70.9,70.0,29.89,South,184,0.0,4.0,97,0.00,,,0.34,Wunderground v.1.15,2013-08-28 09:17:00,
2013-08-28 05:23:00,70.9,70.0,29.89,South,184,0.0,4.0,97,0.00,,,0.34,Wunderground v.1.15,2013-08-28 09:23:00,
2013-08-28 05:29:00,70.9,70.0,29.89,South,184,0.0,4.0,97,0.00,,,0.34,Wunderground v.1.15,2013-08-28 09:29:00,
2013-08-28 05:34:00,70.8,69.9,29.89,South,184,0.0,4.0,97,0.00,,,0.34,Wunderground v.1.15,2013-08-28 09:34:00,
2013-08-28 05:40:00,70.8,69.9,29.88,South,184,0.0,4.0,97,0.00,,,0.34,Wunderground v.1.15,2013-08-28 09:40:00,
2013-08-28 05:46:00,70.8,69.9,29.88,South,184,0.0,4.0,97,0.00,,,0.34,Wunderground v.1.15,2013-08-28 09:46:00,
2013-08-28 05:51:00,70.9,70.0,29.88,South,184,0.0,4.0,97,0.00,,,0.34,Wunderground v.1.15,2013-08-28 09:51:00,
2013-08-28 05:57:00,70.9,70.0,29.88,South,184,0.0,4.0,97,0.00,,,0.34,Wunderground v.1.15,2013-08-28 09:57:00,
2013-08-28 06:02:00,70.9,70.0,29.88,South,184,0.0,0.0,97,0.00,,,0.34,Wunderground v.1.15,2013-08-28 10:02:00,
2013-08-28 06:08:00,71.0,70.1,29.88,South,184,0.0,0.0,97,0.00,,,0.34,Wunderground v.1.15,2013-08-28 10:08:00,
2013-08-28 06:13:00,71.0,70.4,29.87,South,184,0.0,0.0,98,0.00,,,0.34,Wunderground v.1.15,2013-08-28 10:13:00,
2013-08-28 06:19:00,71.0,70.4,29.87,South,184,0.0,0.0,98,0.00,,,0.34,Wunderground v.1.15,2013-08-28 10:19:00,
2013-08-28 06:25:00,71.0,70.4,29.87,South,184,0.0,2.0,98,0.00,,,0.34,Wunderground v.1.15,2013-08-28 10:25:00,
2013-08-28 06:31:00,71.0,70.4,29.88,South,184,0.0,0.0,98,0.00,,,0.34,Wunderground v.1.15,2013-08-28 10:31:00,
2013-08-28 06:37:00,71.1,70.5,29.88,South,184,0.0,0.0,98,0.00,,,0.34,Wunderground v.1.15,2013-08-28 10:37:00,
2013-08-28 06:42:00,71.1,70.5,29.88,South,184,0.0,0.0,98,0.00,,,0.34,Wunderground v.1.15,2013-08-28 10:42:00,
2013-08-28 06:48:00,71.2,70.6,29.88,South,184,0.0,0.0,98,0.00,,,0.34,Wunderground v.1.15,2013-08-28 10:48:00,
2013-08-28 06:54:00,71.3,70.7,29.87,South,184,0.0,0.0,98,0.00,,,0.34,Wunderground v.1.15,2013-08-28 10:54:00,
2013-08-28 07:00:00,71.3,70.7,29.87,South,184,0.0,0.0,98,0.00,,,0.34,Wunderground v.1.15,2013-08-28 11:00:00,
2013-08-28 07:06:00,71.3,70.7,29.87,South,184,0.0,2.0,98,0.00,,,0.34,Wunderground v.1.15,2013-08-28 11:06:00,
2013-08-28 07:11:00,71.4,70.8,29.88,South,184,0.0,2.0,98,0.00,,,0.34,Wunderground v.1.15,2013-08-28 11:11:00,
2013-08-28 07:17:00,71.4,70.8,29.88,South,184,0.0,2.0,98,0.00,,,0.34,Wunderground v.1.15,2013-08-28 11:17:00,
2013-08-28 07:23:00,71.4,70.8,29.88,South,184,0.0,2.0,98,0.00,,,0.34,Wunderground v.1.15,2013-08-28 11:23:00,
2013-08-28 07:28:00,71.5,70.9,29.88,South,184,0.0,2.0,98,0.00,,,0.34,Wunderground v.1.15,2013-08-28 11:28:00,
2013-08-28 07:34:00,71.5,70.9,29.88,South,184,0.0,2.0,98,0.00,,,0.34,Wunderground v.1.15,2013-08-28 11:34:00,
2013-08-28 07:39:00,71.5,70.9,29.88,South,184,0.0,2.0,98,0.00,,,0.34,Wunderground v.1.15,2013-08-28 11:39:00,
2013-08-28 07:45:00,71.5,70.9,29.88,South,184,0.0,2.0,98,0.00,,,0.34,Wunderground v.1.15,2013-08-28 11:45:00,
2013-08-28 07:51:00,71.5,70.9,29.88,South,184,0.0,2.0,98,0.00,,,0.34,Wunderground v.1.15,2013-08-28 11:51:00,
2013-08-28 07:57:00,71.6,71.0,29.89,South,184,0.0,2.0,98,0.00,,,0.34,Wunderground v.1.15,2013-08-28 11:57:00,
2013-08-28 08:02:00,71.6,71.0,29.89,South,184,0.0,2.0,98,0.00,,,0.34,Wunderground v.1.15,2013-08-28 12:02:00,
2013-08-28 08:08:00,71.7,71.1,29.89,South,184,0.0,2.0,98,0.00,,,0.34,Wunderground v.1.15,2013-08-28 12:08:00,
2013-08-28 08:14:00,71.7,71.1,29.89,SW,223,0.0,2.0,98,0.00,,,0.34,Wunderground v.1.15,2013-08-28 12:14:00,
2013-08-28 08:20:00,71.8,71.2,29.89,SW,228,1.0,2.0,98,0.00,,,0.34,Wunderground v.1.15,2013-08-28 12:20:00,
2013-08-28 08:25:00,71.9,71.3,29.89,WSW,254,1.0,3.0,98,0.00,,,0.34,Wunderground v.1.15,2013-08-28 12:25:00,
2013-08-28 08:31:00,71.9,71.3,29.89,SW,235,1.0,2.0,98,0.00,,,0.34,Wunderground v.1.15,2013-08-28 12:31:00,
2013-08-28 08:37:00,72.0,71.4,29.89,WSW,242,2.0,5.0,98,0.00,,,0.34,Wunderground v.1.15,2013-08-28 12:37:00,
2013-08-28 08:43:00,72.0,71.4,29.89,West,263,2.0,6.0,98,0.00,,,0.35,Wunderground v.1.15,2013-08-28 12:43:00,
2013-08-28 08:48:00,72.1,71.5,29.89,WSW,252,2.0,6.0,98,0.00,,,0.35,Wunderground v.1.15,2013-08-28 12:48:00,
2013-08-28 08:54:00,72.1,71.5,29.89,WSW,250,2.0,5.0,98,0.00,,,0.35,Wunderground v.1.15,2013-08-28 12:54:00,
2013-08-28 09:01:00,72.2,71.6,29.89,SW,233,3.0,5.0,98,0.00,,,0.35,Wunderground v.1.15,2013-08-28 13:01:00,
2013-08-28 09:06:00,72.2,71.6,29.89,WSW,250,4.0,9.0,98,0.00,,,0.36,Wunderground v.1.15,2013-08-28 13:06:00,
2013-08-28 09:12:00,72.3,71.7,29.88,SW,229,4.0,5.0,98,0.00,,,0.36,Wunderground v.1.15,2013-08-28 13:12:00,
2013-08-28 09:18:00,72.3,71.7,29.88,WSW,241,3.0,7.0,98,0.00,,,0.36,Wunderground v.1.15,2013-08-28 13:18:00,
2013-08-28 09:24:00,72.3,71.7,29.88,WSW,254,3.0,4.0,98,0.00,,,0.36,Wunderground v.1.15,2013-08-28 13:24:00,
2013-08-28 09:29:00,72.4,71.8,29.88,WSW,255,3.0,5.0,98,0.00,,,0.36,Wunderground v.1.15,2013-08-28 13:29:00,
2013-08-28 09:35:00,72.4,71.8,29.88,West,259,3.0,4.0,98,0.00,,,0.36,Wunderground v.1.15,2013-08-28 13:35:00,
2013-08-28 09:41:00,72.4,71.8,29.88,SW,219,3.0,5.0,98,0.00,,,0.36,Wunderground v.1.15,2013-08-28 13:41:00,
2013-08-28 09:47:00,72.5,71.9,29.88,SW,219,3.0,5.0,98,0.00,,,0.36,Wunderground v.1.15,2013-08-28 13:47:00,
2013-08-28 09:52:00,72.6,72.0,29.88,WNW,285,3.0,5.0,98,0.00,,,0.36,Wunderground v.1.15,2013-08-28 13:52:00,
2013-08-28 09:58:00,72.7,72.1,29.88,West,272,3.0,6.0,98,0.00,,,0.36,Wunderground v.1.15,2013-08-28 13:58:00,
2013-08-28 10:04:00,72.8,72.2,29.87,WSW,253,4.0,7.0,98,0.00,,,0.36,Wunderground v.1.15,2013-08-28 14:04:00,
2013-08-28 10:10:00,72.8,72.2,29.87,SSW,202,4.0,7.0,98,0.00,,,0.36,Wunderground v.1.15,2013-08-28 14:10:00,
2013-08-28 10:15:00,72.8,72.2,29.87,WSW,253,4.0,7.0,98,0.00,,,0.36,Wunderground v.1.15,2013-08-28 14:15:00,
2013-08-28 10:21:00,72.8,72.2,29.87,WSW,251,5.0,7.0,98,0.00,,,0.36,Wunderground v.1.15,2013-08-28 14:21:00,
2013-08-28 10:27:00,72.8,72.2,29.87,WSW,246,5.0,7.0,98,0.00,,,0.36,Wunderground v.1.15,2013-08-28 14:27:00,
2013-08-28 10:33:00,72.8,72.2,29.88,WSW,244,4.0,7.0,98,0.00,,,0.36,Wunderground v.1.15,2013-08-28 14:33:00,
2013-08-28 10:39:00,72.8,72.2,29.87,West,280,3.0,7.0,98,0.00,,,0.36,Wunderground v.1.15,2013-08-28 14:39:00,
2013-08-28 10:44:00,72.9,72.3,29.88,NW,311,4.0,10.0,98,0.00,,,0.36,Wunderground v.1.15,2013-08-28 14:44:00,
2013-08-28 10:50:00,73.0,72.4,29.88,WSW,254,4.0,4.0,98,0.00,,,0.36,Wunderground v.1.15,2013-08-28 14:50:00,
2013-08-28 10:56:00,73.2,72.6,29.88,SW,227,5.0,7.0,98,0.00,,,0.36,Wunderground v.1.15,2013-08-28 14:56:00,
2013-08-28 11:02:00,73.4,72.8,29.88,West,265,4.0,7.0,98,0.00,,,0.36,Wunderground v.1.15,2013-08-28 15:02:00,
2013-08-28 11:08:00,73.5,72.9,29.88,West,259,3.0,7.0,98,0.00,,,0.36,Wunderground v.1.15,2013-08-28 15:08:00,
2013-08-28 11:13:00,73.6,73.0,29.88,West,266,3.0,7.0,98,0.00,,,0.36,Wunderground v.1.15,2013-08-28 15:13:00,
2013-08-28 11:19:00,73.6,73.0,29.88,SSW,211,4.0,10.0,98,0.00,,,0.36,Wunderground v.1.15,2013-08-28 15:19:00,
2013-08-28 11:25:00,73.5,72.6,29.88,West,279,4.0,8.0,97,0.00,,,0.36,Wunderground v.1.15,2013-08-28 15:25:00,
2013-08-28 11:31:00,73.5,72.6,29.88,NW,315,4.0,5.0,97,0.00,,,0.36,Wunderground v.1.15,2013-08-28 15:31:00,
2013-08-28 11:36:00,73.4,72.5,29.88,WNW,283,5.0,8.0,97,0.00,,,0.36,Wunderground v.1.15,2013-08-28 15:36:00,
2013-08-28 11:42:00,73.4,72.5,29.88,NNE,18,4.0,10.0,97,0.00,,,0.36,Wunderground v.1.15,2013-08-28 15:42:00,
2013-08-28 11:48:00,73.5,72.6,29.88,WNW,285,4.0,11.0,97,0.00,,,0.36,Wunderground v.1.15,2013-08-28 15:48:00,
2013-08-28 11:54:00,73.5,72.6,29.88,WNW,302,4.0,7.0,97,0.00,,,0.36,Wunderground v.1.15,2013-08-28 15:54:00,
2013-08-28 11:59:00,73.4,72.5,29.88,WSW,258,3.0,7.0,97,0.00,,,0.36,Wunderground v.1.15,2013-08-28 15:59:00,
2013-08-28 12:04:00,73.4,72.5,29.88,SW,223,2.0,3.0,97,0.00,,,0.36,Wunderground v.1.15,2013-08-28 16:04:00,
2013-08-28 12:10:00,73.3,72.4,29.88,West,279,2.0,4.0,97,0.00,,,0.36,Wunderground v.1.15,2013-08-28 16:10:00,
2013-08-28 12:16:00,73.3,72.4,29.88,West,273,4.0,7.0,97,0.00,,,0.36,Wunderground v.1.15,2013-08-28 16:16:00,
2013-08-28 12:22:00,73.3,72.4,29.88,West,266,3.0,3.0,97,0.00,,,0.36,Wunderground v.1.15,2013-08-28 16:22:00,
2013-08-28 12:28:00,73.3,72.4,29.88,WSW,255,3.0,8.0,97,0.00,,,0.36,Wunderground v.1.15,2013-08-28 16:28:00,
2013-08-28 12:34:00,73.4,72.5,29.89,WSW,254,3.0,4.0,97,0.00,,,0.36,Wunderground v.1.15,2013-08-28 16:34:00,
2013-08-28 12:39:00,73.4,72.5,29.89,NNE,13,3.0,6.0,97,0.00,,,0.36,Wunderground v.1.15,2013-08-28 16:39:00,
2013-08-28 12:45:00,73.5,72.6,29.89,WNW,288,3.0,7.0,97,0.00,,,0.36,Wunderground v.1.15,2013-08-28 16:45:00,
2013-08-28 12:50:00,73.5,72.6,29.89,WNW,298,3.0,3.0,97,0.00,,,0.36,Wunderground v.1.15,2013-08-28 16:50:00,
2013-08-28 12:55:00,73.7,72.8,29.89,West,267,3.0,6.0,97,0.00,,,0.36,Wunderground v.1.15,2013-08-28 16:55:00,
2013-08-28 13:00:00,73.6,72.7,29.89,NNW,344,3.0,3.0,97,0.00,,,0.36,Wunderground v.1.15,2013-08-28 17:00:00,
2013-08-28 13:06:00,73.5,72.6,29.89,NNW,343,2.0,14.0,97,0.00,,,0.36,Wunderground v.1.15,2013-08-28 17:06:00,
2013-08-28 13:12:00,73.4,72.5,29.89,North,9,2.0,14.0,97,0.00,,,0.36,Wunderground v.1.15,2013-08-28 17:12:00,
2013-08-28 13:18:00,73.5,72.6,29.89,NW,309,2.0,14.0,97,0.00,,,0.36,Wunderground v.1.15,2013-08-28 17:18:00,
2013-08-28 13:23:00,73.7,72.8,29.89,ENE,58,1.0,14.0,97,0.00,,,0.36,Wunderground v.1.15,2013-08-28 17:23:00,
2013-08-28 13:29:00,73.6,72.4,29.89,WSW,242,2.0,14.0,96,0.00,,,0.36,Wunderground v.1.15,2013-08-28 17:29:00,
2013-08-28 13:34:00,73.6,72.4,29.89,North,360,2.0,14.0,96,0.00,,,0.36,Wunderground v.1.15,2013-08-28 17:34:00,
2013-08-28 13:40:00,73.4,72.2,29.89,ENE,59,2.0,14.0,96,0.00,,,0.36,Wunderground v.1.15,2013-08-28 17:40:00,
2013-08-28 13:46:00,73.4,72.2,29.89,NW,309,2.0,14.0,96,0.00,,,0.36,Wunderground v.1.15,2013-08-28 17:46:00,
2013-08-28 13:51:00,73.4,72.2,29.90,WNW,294,2.0,14.0,96,0.00,,,0.36,Wunderground v.1.15,2013-08-28 17:51:00,
2013-08-28 13:57:00,73.5,72.3,29.90,NW,309,1.0,14.0,96,0.00,,,0.36,Wunderground v.1.15,2013-08-28 17:57:00,
2013-08-28 14:03:00,73.6,72.4,29.90,North,360,1.0,14.0,96,0.00,,,0.36,Wunderground v.1.15,2013-08-28 18:03:00,
2013-08-28 14:09:00,73.6,72.4,29.90,North,9,2.0,14.0,96,0.00,,,0.36,Wunderground v.1.15,2013-08-28 18:09:00,
2013-08-28 14:14:00,73.8,72.6,29.90,NW,311,2.0,14.0,96,0.00,,,0.36,Wunderground v.1.15,2013-08-28 18:14:00,
2013-08-28 14:19:00,73.9,72.7,29.90,NNW,327,1.0,14.0,96,0.00,,,0.36,Wunderground v.1.15,2013-08-28 18:19:00,
2013-08-28 14:24:00,73.9,72.7,29.90,ENE,57,1.0,14.0,96,0.00,,,0.36,Wunderground v.1.15,2013-08-28 18:24:00,
2013-08-28 14:29:00,74.1,72.9,29.91,NW,317,1.0,14.0,96,0.00,,,0.36,Wunderground v.1.15,2013-08-28 18:29:00,
2013-08-28 14:35:00,73.9,72.4,29.91,NNW,339,1.0,14.0,95,0.00,,,0.36,Wunderground v.1.15,2013-08-28 18:35:00,
2013-08-28 14:41:00,73.7,72.2,29.91,North,9,2.0,14.0,95,0.00,,,0.36,Wunderground v.1.15,2013-08-28 18:41:00,
2013-08-28 14:46:00,73.6,72.1,29.91,NNW,331,2.0,14.0,95,0.00,,,0.36,Wunderground v.1.15,2013-08-28 18:46:00,
2013-08-28 14:51:00,73.5,72.0,29.91,NNW,335,2.0,14.0,95,0.00,,,0.36,Wunderground v.1.15,2013-08-28 18:51:00,
2013-08-28 14:57:00,73.6,72.4,29.91,NNW,327,1.0,14.0,96,0.00,,,0.36,Wunderground v.1.15,2013-08-28 18:57:00,
2013-08-28 15:03:00,73.7,72.5,29.91,NNW,346,1.0,2.0,96,0.00,,,0.36,Wunderground v.1.15,2013-08-28 19:03:00,
2013-08-28 15:08:00,73.8,72.6,29.92,NNE,18,1.0,6.0,96,0.00,,,0.36,Wunderground v.1.15,2013-08-28 19:08:00,
2013-08-28 15:14:00,73.8,72.6,29.92,West,267,1.0,2.0,96,0.00,,,0.36,Wunderground v.1.15,2013-08-28 19:14:00,
2013-08-28 15:19:00,73.9,72.7,29.92,North,9,1.0,3.0,96,0.00,,,0.36,Wunderground v.1.15,2013-08-28 19:19:00,
2013-08-28 15:24:00,73.9,72.4,29.92,NNE,17,2.0,4.0,95,0.00,,,0.36,Wunderground v.1.15,2013-08-28 19:24:00,
2013-08-28 15:29:00,73.8,72.3,29.92,ENE,60,2.0,4.0,95,0.00,,,0.36,Wunderground v.1.15,2013-08-28 19:29:00,
2013-08-28 15:34:00,73.9,72.1,29.92,NE,40,2.0,3.0,94,0.00,,,0.36,Wunderground v.1.15,2013-08-28 19:34:00,
2013-08-28 15:39:00,74.0,72.2,29.93,NE,38,2.0,3.0,94,0.00,,,0.36,Wunderground v.1.15,2013-08-28 19:39:00,
2013-08-28 15:44:00,74.3,72.1,29.93,North,349,2.0,4.0,93,0.00,,,0.36,Wunderground v.1.15,2013-08-28 19:44:00,
2013-08-28 15:49:00,74.7,72.5,29.92,NE,49,2.0,4.0,93,0.00,,,0.36,Wunderground v.1.15,2013-08-28 19:49:00,
2013-08-28 15:54:00,75.1,72.6,29.92,ENE,69,1.0,2.0,92,0.00,,,0.36,Wunderground v.1.15,2013-08-28 19:54:00,
2013-08-28 15:59:00,75.4,72.6,29.92,NE,44,2.0,5.0,91,0.00,,,0.36,Wunderground v.1.15,2013-08-28 19:59:00,
2013-08-28 16:04:00,75.7,72.9,29.92,West,275,2.0,7.0,91,0.00,,,0.36,Wunderground v.1.15,2013-08-28 20:04:00,
2013-08-28 16:09:00,75.8,72.7,29.92,NE,42,2.0,7.0,90,0.00,,,0.36,Wunderground v.1.15,2013-08-28 20:09:00,
2013-08-28 16:14:00,75.8,73.0,29.93,NNE,17,1.0,7.0,91,0.00,,,0.36,Wunderground v.1.15,2013-08-28 20:14:00,
2013-08-28 16:19:00,75.6,72.5,29.93,North,5,1.0,7.0,90,0.00,,,0.36,Wunderground v.1.15,2013-08-28 20:19:00,
2013-08-28 16:24:00,75.3,72.2,29.93,NNE,14,2.0,7.0,90,0.00,,,0.36,Wunderground v.1.15,2013-08-28 20:24:00,
2013-08-28 16:30:00,75.0,72.2,29.93,NNE,16,2.0,2.0,91,0.00,,,0.36,Wunderground v.1.15,2013-08-28 20:30:00,
2013-08-28 16:35:00,75.0,72.2,29.93,NNE,31,2.0,7.0,91,0.00,,,0.36,Wunderground v.1.15,2013-08-28 20:35:00,
2013-08-28 16:40:00,74.8,72.0,29.94,North,355,2.0,2.0,91,0.00,,,0.36,Wunderground v.1.15,2013-08-28 20:40:00,
2013-08-28 16:45:00,74.6,71.8,29.94,NNE,28,2.0,7.0,91,0.00,,,0.36,Wunderground v.1.15,2013-08-28 20:45:00,
2013-08-28 16:50:00,74.5,72.0,29.94,NNE,13,1.0,7.0,92,0.00,,,0.36,Wunderground v.1.15,2013-08-28 20:50:00,
2013-08-28 16:56:00,74.3,71.8,29.94,ENE,68,2.0,7.0,92,0.00,,,0.36,Wunderground v.1.15,2013-08-28 20:56:00,
2013-08-28 17:01:00,74.2,71.7,29.94,NNE,22,1.0,7.0,92,0.00,,,0.36,Wunderground v.1.15,2013-08-28 21:01:00,
2013-08-28 17:07:00,74.3,72.1,29.94,NE,37,1.0,7.0,93,0.00,,,0.36,Wunderground v.1.15,2013-08-28 21:07:00,
2013-08-28 17:12:00,74.4,72.2,29.94,NE,37,1.0,7.0,93,0.00,,,0.36,Wunderground v.1.15,2013-08-28 21:12:00,
2013-08-28 17:18:00,74.5,72.3,29.94,North,11,1.0,7.0,93,0.00,,,0.36,Wunderground v.1.15,2013-08-28 21:18:00,
2013-08-28 17:24:00,74.9,72.7,29.94,West,267,1.0,7.0,93,0.00,,,0.36,Wunderground v.1.15,2013-08-28 21:24:00,
2013-08-28 17:30:00,75.0,72.5,29.95,NNW,327,1.0,1.0,92,0.00,,,0.36,Wunderground v.1.15,2013-08-28 21:30:00,
2013-08-28 17:36:00,75.0,71.9,29.95,NNE,13,1.0,7.0,90,0.00,,,0.36,Wunderground v.1.15,2013-08-28 21:36:00,
2013-08-28 17:41:00,75.0,72.2,29.95,NNE,32,1.0,7.0,91,0.00,,,0.36,Wunderground v.1.15,2013-08-28 21:41:00,
2013-08-28 17:47:00,75.1,72.3,29.95,NNE,24,0.0,7.0,91,0.00,,,0.36,Wunderground v.1.15,2013-08-28 21:47:00,
2013-08-28 17:53:00,75.2,72.1,29.95,NNW,335,1.0,7.0,90,0.00,,,0.36,Wunderground v.1.15,2013-08-28 21:53:00,
2013-08-28 17:59:00,75.3,72.5,29.94,NNW,331,1.0,7.0,91,0.00,,,0.36,Wunderground v.1.15,2013-08-28 21:59:00,
2013-08-28 18:04:00,75.3,72.2,29.94,NNE,15,0.0,1.0,90,0.00,,,0.36,Wunderground v.1.15,2013-08-28 22:04:00,
2013-08-28 18:10:00,75.3,72.2,29.95,North,5,1.0,1.0,90,0.00,,,0.36,Wunderground v.1.15,2013-08-28 22:10:00,
2013-08-28 18:16:00,75.2,72.1,29.95,NNW,336,0.0,1.0,90,0.00,,,0.36,Wunderground v.1.15,2013-08-28 22:16:00,
2013-08-28 18:21:00,75.0,71.9,29.95,NNW,342,1.0,1.0,90,0.00,,,0.36,Wunderground v.1.15,2013-08-28 22:21:00,
2013-08-28 18:27:00,74.7,71.6,29.95,North,360,2.0,6.0,90,0.00,,,0.36,Wunderground v.1.15,2013-08-28 22:27:00,
2013-08-28 18:33:00,74.5,71.4,29.95,ENE,69,1.0,2.0,90,0.00,,,0.36,Wunderground v.1.15,2013-08-28 22:33:00,
2013-08-28 18:39:00,74.3,71.2,29.95,North,11,1.0,2.0,90,0.00,,,0.36,Wunderground v.1.15,2013-08-28 22:39:00,
2013-08-28 18:45:00,74.3,71.5,29.95,NE,41,0.0,2.0,91,0.00,,,0.36,Wunderground v.1.15,2013-08-28 22:45:00,
2013-08-28 18:50:00,74.2,71.4,29.95,NNE,32,1.0,3.0,91,0.00,,,0.36,Wunderground v.1.15,2013-08-28 22:50:00,
2013-08-28 18:55:00,74.3,71.2,29.95,NNE,17,1.0,3.0,90,0.00,,,0.36,Wunderground v.1.15,2013-08-28 22:55:00,
2013-08-28 19:01:00,74.5,71.4,29.95,ENE,61,2.0,11.0,90,0.00,,,0.36,Wunderground v.1.15,2013-08-28 23:01:00,
2013-08-28 19:07:00,74.5,71.4,29.95,NE,46,1.0,11.0,90,0.00,,,0.36,Wunderground v.1.15,2013-08-28 23:07:00,
2013-08-28 19:13:00,74.5,71.0,29.96,NE,46,1.0,11.0,89,0.00,,,0.36,Wunderground v.1.15,2013-08-28 23:13:00,
2013-08-28 19:19:00,74.5,71.4,29.95,NE,40,0.0,11.0,90,0.00,,,0.36,Wunderground v.1.15,2013-08-28 23:19:00,
2013-08-28 19:25:00,74.4,71.3,29.96,NNE,30,1.0,11.0,90,0.00,,,0.36,Wunderground v.1.15,2013-08-28 23:25:00,
2013-08-28 19:30:00,74.2,71.1,29.96,NE,56,1.0,1.0,90,0.00,,,0.36,Wunderground v.1.15,2013-08-28 23:30:00,
2013-08-28 19:36:00,74.0,71.2,29.96,NE,53,0.0,11.0,91,0.00,,,0.36,Wunderground v.1.15,2013-08-28 23:36:00,
2013-08-28 19:42:00,73.9,71.1,29.97,NW,315,0.0,11.0,91,0.00,,,0.36,Wunderground v.1.15,2013-08-28 23:42:00,
2013-08-28 19:47:00,73.8,71.0,29.97,NNE,17,0.0,11.0,91,0.00,,,0.36,Wunderground v.1.15,2013-08-28 23:47:00,
2013-08-28 19:53:00,73.5,70.7,29.97,NNW,327,0.0,11.0,91,0.00,,,0.36,Wunderground v.1.15,2013-08-28 23:53:00,
2013-08-28 19:59:00,73.3,70.5,29.97,NNW,328,0.0,11.0,91,0.00,,,0.36,Wunderground v.1.15,2013-08-28 23:59:00,
2013-08-28 20:05:00,72.9,70.4,29.97,NNW,328,0.0,11.0,92,0.00,,,0.36,Wunderground v.1.15,2013-08-29 00:05:00,
2013-08-28 20:11:00,72.7,70.2,29.98,NNW,328,0.0,11.0,92,0.00,,,0.36,Wunderground v.1.15,2013-08-29 00:11:00,
2013-08-28 20:17:00,72.3,69.8,29.98,NNW,328,0.0,11.0,92,0.00,,,0.36,Wunderground v.1.15,2013-08-29 00:17:00,
2013-08-28 20:23:00,72.1,70.0,29.98,NNW,328,0.0,11.0,93,0.00,,,0.36,Wunderground v.1.15,2013-08-29 00:23:00,
2013-08-28 20:29:00,71.7,69.6,29.98,NNW,328,0.0,11.0,93,0.00,,,0.36,Wunderground v.1.15,2013-08-29 00:29:00,
2013-08-28 20:35:00,71.5,69.7,29.98,NNW,328,0.0,11.0,94,0.00,,,0.36,Wunderground v.1.15,2013-08-29 00:35:00,
2013-08-28 20:40:00,71.2,69.4,29.99,NNW,328,0.0,11.0,94,0.00,,,0.36,Wunderground v.1.15,2013-08-29 00:40:00,
2013-08-28 20:46:00,71.0,69.2,29.99,NNW,328,0.0,11.0,94,0.00,,,0.36,Wunderground v.1.15,2013-08-29 00:46:00,
2013-08-28 20:51:00,70.8,69.0,29.99,NNW,328,0.0,11.0,94,0.00,,,0.36,Wunderground v.1.15,2013-08-29 00:51:00,
2013-08-28 20:56:00,70.6,68.8,29.99,NNW,328,0.0,11.0,94,0.00,,,0.36,Wunderground v.1.15,2013-08-29 00:56:00,
2013-08-28 21:02:00,70.4,68.9,29.99,NNW,328,0.0,0.0,95,0.00,,,0.36,Wunderground v.1.15,2013-08-29 01:02:00,
2013-08-28 21:08:00,70.2,68.7,30.00,NNW,328,0.0,0.0,95,0.00,,,0.36,Wunderground v.1.15,2013-08-29 01:08:00,
2013-08-28 21:14:00,70.0,68.5,30.00,NNW,328,0.0,0.0,95,0.00,,,0.36,Wunderground v.1.15,2013-08-29 01:14:00,
2013-08-28 21:20:00,69.9,68.4,30.00,NNW,328,0.0,0.0,95,0.00,,,0.36,Wunderground v.1.15,2013-08-29 01:20:00,
2013-08-28 21:26:00,69.8,68.6,30.00,NNW,328,0.0,0.0,96,0.00,,,0.36,Wunderground v.1.15,2013-08-29 01:26:00,
2013-08-28 21:31:00,69.6,68.4,30.01,NNW,328,0.0,0.0,96,0.00,,,0.36,Wunderground v.1.15,2013-08-29 01:31:00,
2013-08-28 21:37:00,69.5,68.3,30.01,NNW,328,0.0,0.0,96,0.00,,,0.36,Wunderground v.1.15,2013-08-29 01:37:00,
2013-08-28 21:43:00,69.4,68.2,30.01,NNW,328,0.0,0.0,96,0.00,,,0.36,Wunderground v.1.15,2013-08-29 01:43:00,
2013-08-28 21:49:00,69.2,68.0,30.01,NNW,328,0.0,0.0,96,0.00,,,0.36,Wunderground v.1.15,2013-08-29 01:49:00,
2013-08-28 21:54:00,69.1,67.9,30.01,NNW,328,0.0,0.0,96,0.00,,,0.36,Wunderground v.1.15,2013-08-29 01:54:00,
2013-08-28 22:00:00,69.0,67.8,30.02,NNW,328,0.0,0.0,96,0.00,,,0.36,Wunderground v.1.15,2013-08-29 02:00:00,
2013-08-28 22:06:00,69.0,68.1,30.02,NNW,328,0.0,1.0,97,0.00,,,0.36,Wunderground v.1.15,2013-08-29 02:06:00,
2013-08-28 22:11:00,69.0,68.1,30.02,NNW,328,0.0,1.0,97,0.00,,,0.36,Wunderground v.1.15,2013-08-29 02:11:00,
2013-08-28 22:17:00,69.0,68.1,30.02,NNW,328,0.0,1.0,97,0.00,,,0.36,Wunderground v.1.15,2013-08-29 02:17:00,
2013-08-28 22:23:00,69.1,68.2,30.02,NNW,328,0.0,1.0,97,0.00,,,0.36,Wunderground v.1.15,2013-08-29 02:23:00,
2013-08-28 22:29:00,69.2,68.3,30.02,NNW,328,0.0,1.0,97,0.00,,,0.36,Wunderground v.1.15,2013-08-29 02:29:00,
2013-08-28 22:35:00,69.1,68.2,30.02,NNW,328,0.0,1.0,97,0.00,,,0.36,Wunderground v.1.15,2013-08-29 02:35:00,
2013-08-28 22:41:00,69.1,68.2,30.02,NNW,328,0.0,1.0,97,0.00,,,0.36,Wunderground v.1.15,2013-08-29 02:41:00,
2013-08-28 22:47:00,69.1,68.2,30.03,NNW,328,0.0,1.0,97,0.00,,,0.36,Wunderground v.1.15,2013-08-29 02:47:00,
2013-08-28 22:52:00,69.1,68.2,30.03,NNW,328,0.0,1.0,97,0.00,,,0.36,Wunderground v.1.15,2013-08-29 02:52:00,
2013-08-28 22:57:00,69.1,68.2,30.03,NNW,328,0.0,1.0,97,0.00,,,0.36,Wunderground v.1.15,2013-08-29 02:57:00,
2013-08-28 23:02:00,69.0,68.1,30.03,NNW,328,0.0,1.0,97,0.00,,,0.36,Wunderground v.1.15,2013-08-29 03:02:00,
2013-08-28 23:08:00,69.0,68.1,30.03,NNW,328,0.0,1.0,97,0.00,,,0.36,Wunderground v.1.15,2013-08-29 03:08:00,
2013-08-28 23:13:00,69.0,68.1,30.02,NNW,328,0.0,1.0,97,0.00,,,0.36,Wunderground v.1.15,2013-08-29 03:13:00,
2013-08-28 23:18:00,68.9,68.0,30.03,NNW,328,0.0,1.0,97,0.00,,,0.36,Wunderground v.1.15,2013-08-29 03:18:00,
2013-08-28 23:24:00,68.9,68.0,30.03,NNW,328,0.0,1.0,97,0.00,,,0.36,Wunderground v.1.15,2013-08-29 03:24:00,
2013-08-28 23:30:00,68.8,67.9,30.03,NNW,328,0.0,1.0,97,0.00,,,0.36,Wunderground v.1.15,2013-08-29 03:30:00,
2013-08-28 23:36:00,68.8,67.9,30.03,NNW,328,0.0,1.0,97,0.00,,,0.36,Wunderground v.1.15,2013-08-29 03:36:00,
2013-08-28 23:41:00,68.8,68.2,30.03,NNW,328,0.0,1.0,98,0.00,,,0.36,Wunderground v.1.15,2013-08-29 03:41:00,
2013-08-28 23:46:00,68.8,68.2,30.03,NNW,328,0.0,1.0,98,0.00,,,0.36,Wunderground v.1.15,2013-08-29 03:46:00,
2013-08-28 23:51:00,68.8,68.2,30.03,NNW,328,0.0,1.0,98,0.00,,,0.36,Wunderground v.1.15,2013-08-29 03:51:00,
2013-08-28 23:57:00,68.8,67.9,30.03,NNW,328,0.0,1.0,97,0.00,,,0.00,Wunderground v.1.15,2013-08-29 03:57:00,